Terminal Aerodrome Forecast
Issued by NWS Flagstaff, AZ

Home | Current Version | Previous Version | Text Only | Print | Product List | Glossary On
Versions: 1 2 3 4 5 6 7 8 9 10 11 12 13 14 15 16 17 18 19 20 21 22 23 24 25 26 27 28 29 30 31 32 33 34
000
FTUS45 KFGZ 230850 AAB
TAFFLG
TAF AMD
KFLG 230850Z 2309/2406 23015G22KT 3SM -SN BR SCT007 BKN010
      TEMPO 2309/2313 1SM -SN BR OVC004
     FM231300 22012G22KT 1/4SM SN FZFG VV003=

USA.gov is the U.S. government's official web portal to all federal, state and local government web resources and services.